Time;durP1;ratioP1;P1;durP2;ratioP2;P2;SDS_P1;SDS_P2;PMS_P1;PMS_P2;Temp;Humidity;BMP_temperature;BMP_pressure;BME280_temperature;BME280_humidity;BME280_pressure;Samples;Min_cycle;Max_cycle;Signal;HPM_P1;HPM_P2
2023/07/29 00:02:11;;;;;;;2.47;1.73;;;;;;;;;;5061301;28;20209;-64
2023/07/29 00:04:38;;;;;;;3.17;1.93;;;;;;;;;;5061042;28;20208;-64
2023/07/29 00:07:06;;;;;;;3.40;2.10;;;;;;;;;;5060916;28;20321;-65
2023/07/29 00:09:34;;;;;;;2.10;1.90;;;;;;;;;;5060780;28;20219;-65
2023/07/29 00:12:02;;;;;;;3.43;2.07;;;;;;;;;;5061228;28;20275;-64
2023/07/29 00:14:31;;;;;;;4.27;1.80;;;;;;;;;;5061032;28;20206;-65
2023/07/29 00:16:59;;;;;;;3.93;2.10;;;;;;;;;;5060770;28;20291;-64
2023/07/29 00:19:28;;;;;;;2.60;2.40;;;;;;;;;;5060894;28;20683;-65
2023/07/29 00:21:56;;;;;;;3.00;2.40;;;;;;;;;;5060874;28;20209;-63
2023/07/29 00:24:24;;;;;;;2.20;2.00;;;;;;;;;;5060337;28;20209;-64
2023/07/29 00:26:51;;;;;;;2.87;2.20;;;;;;;;;;5060508;28;20208;-65
2023/07/29 00:29:19;;;;;;;4.13;2.07;;;;;;;;;;5060721;28;20295;-63
2023/07/29 00:31:48;;;;;;;2.30;2.10;;;;;;;;;;5060646;28;20235;-64
2023/07/29 00:34:19;;;;;;;2.23;2.03;;;;;;;;;;5060423;28;20576;-63
2023/07/29 00:36:47;;;;;;;3.00;2.80;;;;;;;;;;5060601;28;20215;-63
2023/07/29 00:39:15;;;;;;;3.57;2.10;;;;;;;;;;5060369;28;20223;-63
2023/07/29 00:41:43;;;;;;;2.67;2.00;;;;;;;;;;5060427;28;20234;-64
2023/07/29 00:44:10;;;;;;;3.37;2.37;;;;;;;;;;5060219;28;20669;-64
2023/07/29 00:46:38;;;;;;;4.90;2.47;;;;;;;;;;5059064;28;20287;-65
2023/07/29 00:49:08;;;;;;;3.70;2.30;;;;;;;;;;5060007;28;20664;-64
2023/07/29 00:51:36;;;;;;;3.00;2.30;;;;;;;;;;5059944;28;20241;-64
2023/07/29 00:54:04;;;;;;;2.40;2.07;;;;;;;;;;5059714;28;20643;-63
2023/07/29 00:56:32;;;;;;;3.83;2.63;;;;;;;;;;5059474;28;20242;-63
2023/07/29 00:59:01;;;;;;;2.80;2.20;;;;;;;;;;5060042;28;20666;-63
2023/07/29 01:01:29;;;;;;;2.83;2.43;;;;;;;;;;5060109;28;20223;-63
2023/07/29 01:03:57;;;;;;;2.47;2.27;;;;;;;;;;5060231;28;20658;-64
2023/07/29 01:06:30;;;;;;;3.13;2.77;;;;;;;;;;5060078;28;20213;-64
2023/07/29 01:09:02;;;;;;;3.23;2.40;;;;;;;;;;5059841;28;20235;-64
2023/07/29 01:11:36;;;;;;;4.17;2.43;;;;;;;;;;5059720;28;20670;-64
2023/07/29 01:14:07;;;;;;;3.27;2.83;;;;;;;;;;5059822;28;20568;-64
2023/07/29 01:16:37;;;;;;;3.57;2.50;;;;;;;;;;5059728;28;20206;-63
2023/07/29 01:19:06;;;;;;;3.60;3.07;;;;;;;;;;5059968;28;20199;-65
2023/07/29 01:21:36;;;;;;;2.97;2.77;;;;;;;;;;5059697;28;20233;-64
2023/07/29 01:24:05;;;;;;;3.30;3.07;;;;;;;;;;5059688;28;20206;-64
2023/07/29 01:26:33;;;;;;;4.00;2.80;;;;;;;;;;5059689;28;20214;-63
2023/07/29 01:29:01;;;;;;;3.27;2.90;;;;;;;;;;5059693;28;20796;-64
2023/07/29 01:31:33;;;;;;;4.83;3.13;;;;;;;;;;5059273;28;20236;-64
2023/07/29 01:34:06;;;;;;;4.00;2.80;;;;;;;;;;5059343;28;20243;-64
2023/07/29 01:36:35;;;;;;;3.77;2.93;;;;;;;;;;5059516;28;20203;-64
2023/07/29 01:39:04;;;;;;;3.30;2.43;;;;;;;;;;5059278;28;20632;-64
2023/07/29 01:41:33;;;;;;;4.23;2.90;;;;;;;;;;5059366;28;20253;-64
2023/07/29 01:44:02;;;;;;;3.90;2.80;;;;;;;;;;5059087;28;20289;-64
2023/07/29 01:46:30;;;;;;;3.33;2.90;;;;;;;;;;5059388;28;20274;-64
2023/07/29 01:48:58;;;;;;;3.57;3.23;;;;;;;;;;5058949;28;20697;-64
2023/07/29 01:51:25;;;;;;;4.10;3.43;;;;;;;;;;5058881;28;20656;-64
2023/07/29 01:53:55;;;;;;;4.77;3.53;;;;;;;;;;5058801;28;20298;-65
2023/07/29 01:56:23;;;;;;;6.00;3.60;;;;;;;;;;5059276;28;20237;-64
2023/07/29 01:58:52;;;;;;;6.00;3.70;;;;;;;;;;5058722;28;20722;-63
2023/07/29 02:01:20;;;;;;;4.43;3.40;;;;;;;;;;5058757;28;20232;-63
2023/07/29 02:03:53;;;;;;;4.00;3.67;;;;;;;;;;5058679;28;20297;-64
2023/07/29 02:06:20;;;;;;;5.10;3.57;;;;;;;;;;5058861;28;20571;-63
2023/07/29 02:08:52;;;;;;;4.10;3.53;;;;;;;;;;5058268;28;20257;-65
2023/07/29 02:11:20;;;;;;;4.40;3.67;;;;;;;;;;5058788;28;20695;-64
2023/07/29 02:13:50;;;;;;;4.43;3.90;;;;;;;;;;5058862;28;20236;-63
2023/07/29 02:16:19;;;;;;;4.13;3.60;;;;;;;;;;5058743;28;20218;-64
2023/07/29 02:18:47;;;;;;;4.67;3.73;;;;;;;;;;5058728;28;20213;-64
2023/07/29 02:21:14;;;;;;;3.97;3.67;;;;;;;;;;5058456;28;20281;-64
2023/07/29 02:23:42;;;;;;;5.17;3.67;;;;;;;;;;5058441;28;20272;-64
2023/07/29 02:26:10;;;;;;;4.83;3.70;;;;;;;;;;5058624;28;20261;-64
2023/07/29 02:28:38;;;;;;;3.70;3.40;;;;;;;;;;5058441;28;20294;-64
2023/07/29 02:31:10;;;;;;;5.53;3.93;;;;;;;;;;5058095;28;20658;-64
2023/07/29 02:33:40;;;;;;;5.40;4.63;;;;;;;;;;5058282;28;20215;-64
2023/07/29 02:36:07;;;;;;;5.13;3.70;;;;;;;;;;5058339;28;20228;-63
2023/07/29 02:38:35;;;;;;;5.43;4.07;;;;;;;;;;5057870;28;20249;-64
2023/07/29 02:41:03;;;;;;;5.20;3.40;;;;;;;;;;5058185;28;20318;-64
2023/07/29 02:43:30;;;;;;;4.07;3.67;;;;;;;;;;5058344;28;20212;-64
2023/07/29 02:45:58;;;;;;;5.73;3.93;;;;;;;;;;5058203;28;20234;-63
2023/07/29 02:48:26;;;;;;;4.63;3.60;;;;;;;;;;5057926;28;20659;-65
2023/07/29 02:50:55;;;;;;;5.67;3.40;;;;;;;;;;5044687;28;20237;-64
2023/07/29 02:53:23;;;;;;;4.50;3.40;;;;;;;;;;5057794;28;20216;-63
2023/07/29 02:55:51;;;;;;;3.97;3.27;;;;;;;;;;5057748;28;20299;-65
2023/07/29 02:58:19;;;;;;;5.27;3.70;;;;;;;;;;5057856;28;20210;-65
2023/07/29 03:00:48;;;;;;;5.33;3.57;;;;;;;;;;5057900;28;20252;-63
2023/07/29 03:03:16;;;;;;;3.87;3.47;;;;;;;;;;5058019;28;20242;-64
2023/07/29 03:05:44;;;;;;;5.93;3.90;;;;;;;;;;5057713;28;20943;-63
2023/07/29 03:08:13;;;;;;;3.50;3.20;;;;;;;;;;5057460;28;20293;-64
2023/07/29 03:10:42;;;;;;;4.80;3.93;;;;;;;;;;5057711;28;20234;-63
2023/07/29 03:13:09;;;;;;;5.63;3.43;;;;;;;;;;5057878;28;20204;-64
2023/07/29 03:15:37;;;;;;;5.57;3.13;;;;;;;;;;5057632;28;20242;-64
2023/07/29 03:18:05;;;;;;;3.60;3.30;;;;;;;;;;5057751;28;20215;-64
2023/07/29 03:20:35;;;;;;;3.50;3.20;;;;;;;;;;5057271;28;20746;-63
2023/07/29 03:23:03;;;;;;;3.40;3.00;;;;;;;;;;5057661;28;20205;-63
2023/07/29 03:25:33;;;;;;;6.63;3.43;;;;;;;;;;5057580;28;20213;-64
2023/07/29 03:28:01;;;;;;;3.90;3.40;;;;;;;;;;5057733;28;20590;-65
2023/07/29 03:30:28;;;;;;;3.43;3.13;;;;;;;;;;5057310;28;20230;-64
2023/07/29 03:32:56;;;;;;;3.47;3.17;;;;;;;;;;5057742;28;20334;-64
2023/07/29 03:35:24;;;;;;;4.70;3.13;;;;;;;;;;5057914;28;20564;-64
2023/07/29 03:37:52;;;;;;;6.67;3.50;;;;;;;;;;5057824;28;20287;-63
2023/07/29 03:40:19;;;;;;;5.47;3.53;;;;;;;;;;5057604;28;20222;-65
2023/07/29 03:42:49;;;;;;;5.70;3.67;;;;;;;;;;5057723;28;20237;-64
2023/07/29 03:45:17;;;;;;;5.37;3.73;;;;;;;;;;5057798;28;20209;-64
2023/07/29 03:47:44;;;;;;;4.00;3.23;;;;;;;;;;5057481;28;20218;-63
2023/07/29 03:50:12;;;;;;;6.03;3.80;;;;;;;;;;5057230;28;20240;-64
2023/07/29 03:52:40;;;;;;;4.70;3.70;;;;;;;;;;5057478;28;20296;-63
2023/07/29 03:55:08;;;;;;;3.70;3.30;;;;;;;;;;5056918;28;20301;-63
2023/07/29 03:57:36;;;;;;;3.83;3.53;;;;;;;;;;5057208;28;20215;-63
2023/07/29 04:00:06;;;;;;;3.67;3.37;;;;;;;;;;5057064;28;20735;-64
2023/07/29 04:02:38;;;;;;;4.73;3.70;;;;;;;;;;5057239;28;20210;-63
2023/07/29 04:05:08;;;;;;;4.17;3.47;;;;;;;;;;5057173;28;20581;-63
2023/07/29 04:07:36;;;;;;;6.73;3.40;;;;;;;;;;5057274;28;20293;-65
2023/07/29 04:10:05;;;;;;;4.57;4.10;;;;;;;;;;5056686;28;20239;-64
2023/07/29 04:12:33;;;;;;;3.47;2.73;;;;;;;;;;5057040;28;20288;-63
2023/07/29 04:15:00;;;;;;;3.97;3.57;;;;;;;;;;5057010;28;20237;-63
2023/07/29 04:17:32;;;;;;;5.67;2.90;;;;;;;;;;5057296;28;20209;-63
2023/07/29 04:19:59;;;;;;;3.63;3.00;;;;;;;;;;5056934;28;20222;-63
2023/07/29 04:22:27;;;;;;;3.80;3.40;;;;;;;;;;5057193;28;20216;-63
2023/07/29 04:24:55;;;;;;;3.97;2.40;;;;;;;;;;5056720;28;20205;-63
2023/07/29 04:27:23;;;;;;;3.10;2.80;;;;;;;;;;5057190;28;20209;-63
2023/07/29 04:29:50;;;;;;;3.30;3.00;;;;;;;;;;5057104;28;20238;-64
2023/07/29 04:32:18;;;;;;;3.40;2.80;;;;;;;;;;5058166;28;20245;-64
2023/07/29 04:34:47;;;;;;;3.50;2.37;;;;;;;;;;5060778;28;20296;-64
2023/07/29 04:37:15;;;;;;;3.03;2.73;;;;;;;;;;5060308;28;20316;-64
2023/07/29 04:39:43;;;;;;;3.60;3.00;;;;;;;;;;5060239;28;20291;-65
2023/07/29 04:42:10;;;;;;;3.00;2.70;;;;;;;;;;5060590;28;20209;-65
2023/07/29 04:44:38;;;;;;;3.97;2.70;;;;;;;;;;5060530;28;20756;-64
2023/07/29 04:47:06;;;;;;;5.00;3.20;;;;;;;;;;5060436;28;20209;-64
2023/07/29 04:49:34;;;;;;;4.80;2.90;;;;;;;;;;5060180;28;20309;-64
2023/07/29 04:52:03;;;;;;;4.80;2.67;;;;;;;;;;5060152;28;20208;-64
2023/07/29 04:54:33;;;;;;;2.70;2.50;;;;;;;;;;5059893;28;20241;-64
2023/07/29 04:57:03;;;;;;;3.70;2.67;;;;;;;;;;5060330;28;20216;-64
2023/07/29 04:59:31;;;;;;;3.23;2.93;;;;;;;;;;5060208;28;20212;-63
2023/07/29 05:01:58;;;;;;;3.40;2.77;;;;;;;;;;5060199;28;20207;-63
2023/07/29 05:04:26;;;;;;;3.37;2.90;;;;;;;;;;5060263;28;20272;-65
2023/07/29 05:06:54;;;;;;;3.20;2.87;;;;;;;;;;5059767;28;20223;-64
2023/07/29 05:09:23;;;;;;;3.77;2.80;;;;;;;;;;5059554;28;20214;-63
2023/07/29 05:11:53;;;;;;;5.50;3.20;;;;;;;;;;5059970;28;20213;-64
2023/07/29 05:14:21;;;;;;;2.77;2.50;;;;;;;;;;5059754;28;20627;-64
2023/07/29 05:16:49;;;;;;;2.87;2.67;;;;;;;;;;5059748;28;20599;-64
2023/07/29 05:19:17;;;;;;;3.80;3.00;;;;;;;;;;5059629;28;20241;-64
2023/07/29 05:21:44;;;;;;;3.20;2.90;;;;;;;;;;5059447;28;20223;-64
2023/07/29 05:24:12;;;;;;;7.13;2.93;;;;;;;;;;5059344;28;20664;-63
2023/07/29 05:26:41;;;;;;;4.43;3.17;;;;;;;;;;5059452;28;20295;-64
2023/07/29 05:29:09;;;;;;;3.80;3.17;;;;;;;;;;5059519;28;20573;-63
2023/07/29 05:31:37;;;;;;;2.97;2.67;;;;;;;;;;5059543;28;20261;-64
2023/07/29 05:34:05;;;;;;;3.20;2.90;;;;;;;;;;5059415;28;20276;-65
2023/07/29 05:36:33;;;;;;;5.23;3.60;;;;;;;;;;5059542;28;20209;-63
2023/07/29 05:39:01;;;;;;;5.47;2.77;;;;;;;;;;5059384;28;20212;-64
2023/07/29 05:41:29;;;;;;;3.07;2.73;;;;;;;;;;5059210;28;20255;-63
2023/07/29 05:43:58;;;;;;;4.97;3.20;;;;;;;;;;5059138;28;20764;-64
2023/07/29 05:46:26;;;;;;;7.50;3.10;;;;;;;;;;5059473;28;20209;-63
2023/07/29 05:48:54;;;;;;;3.53;2.67;;;;;;;;;;5059112;28;20208;-63
2023/07/29 05:51:21;;;;;;;3.50;3.17;;;;;;;;;;5058739;28;20680;-65
2023/07/29 05:53:49;;;;;;;3.43;3.10;;;;;;;;;;5058939;28;20224;-63
2023/07/29 05:56:17;;;;;;;3.47;3.10;;;;;;;;;;5059226;28;20236;-63
2023/07/29 05:58:45;;;;;;;4.73;3.20;;;;;;;;;;5058838;28;20249;-63
2023/07/29 06:01:14;;;;;;;5.13;3.10;;;;;;;;;;5059031;28;20311;-63
2023/07/29 06:03:42;;;;;;;6.77;3.60;;;;;;;;;;5058990;28;20272;-63
2023/07/29 06:06:10;;;;;;;4.67;2.90;;;;;;;;;;5059007;28;20212;-64
2023/07/29 06:08:37;;;;;;;3.90;3.43;;;;;;;;;;5058554;28;20215;-64
2023/07/29 06:11:06;;;;;;;5.53;3.47;;;;;;;;;;5058750;28;20240;-64
2023/07/29 06:13:34;;;;;;;5.33;3.57;;;;;;;;;;5058826;28;20214;-64
2023/07/29 06:16:02;;;;;;;8.37;3.50;;;;;;;;;;5058502;28;20216;-64
2023/07/29 06:18:31;;;;;;;5.17;3.60;;;;;;;;;;5058584;28;20243;-65
2023/07/29 06:21:00;;;;;;;6.40;4.07;;;;;;;;;;5058499;28;20272;-65
2023/07/29 06:23:28;;;;;;;8.10;3.40;;;;;;;;;;5058433;28;20213;-64
2023/07/29 06:25:55;;;;;;;5.70;3.80;;;;;;;;;;5058411;28;20209;-63
2023/07/29 06:28:23;;;;;;;7.03;3.80;;;;;;;;;;5058073;28;20226;-63
2023/07/29 06:30:51;;;;;;;7.03;4.57;;;;;;;;;;5057994;28;20237;-65
2023/07/29 06:33:19;;;;;;;5.00;3.93;;;;;;;;;;5058513;28;20221;-64
2023/07/29 06:35:48;;;;;;;5.73;3.60;;;;;;;;;;5058394;28;20213;-64
2023/07/29 06:38:19;;;;;;;4.43;3.47;;;;;;;;;;5058072;28;20209;-63
2023/07/29 06:40:47;;;;;;;7.57;3.67;;;;;;;;;;5058148;28;20588;-64
2023/07/29 06:43:14;;;;;;;4.47;3.30;;;;;;;;;;5058134;28;20209;-63
2023/07/29 06:45:42;;;;;;;7.37;3.77;;;;;;;;;;5058219;28;20217;-63
2023/07/29 06:48:10;;;;;;;5.00;3.53;;;;;;;;;;5058330;28;20387;-65
2023/07/29 06:50:40;;;;;;;6.97;3.83;;;;;;;;;;5057702;28;20586;-64
2023/07/29 06:53:10;;;;;;;4.80;3.83;;;;;;;;;;5058029;28;20207;-63
2023/07/29 06:55:38;;;;;;;4.27;3.77;;;;;;;;;;5056987;28;20697;-63
2023/07/29 06:58:05;;;;;;;5.43;3.70;;;;;;;;;;5057961;28;20571;-65
2023/07/29 07:00:36;;;;;;;6.70;3.80;;;;;;;;;;5057600;28;20607;-63
2023/07/29 07:03:04;;;;;;;8.90;4.00;;;;;;;;;;5057981;28;20211;-65
2023/07/29 07:05:32;;;;;;;5.10;3.57;;;;;;;;;;5057909;28;20205;-65
2023/07/29 07:08:00;;;;;;;4.63;3.53;;;;;;;;;;5057788;28;20206;-64
2023/07/29 07:10:29;;;;;;;9.17;4.00;;;;;;;;;;5057318;28;20734;-63
2023/07/29 07:12:56;;;;;;;4.27;3.67;;;;;;;;;;5057755;28;20276;-64
2023/07/29 07:15:24;;;;;;;5.47;3.97;;;;;;;;;;5057575;28;20239;-64
2023/07/29 07:17:52;;;;;;;4.20;3.53;;;;;;;;;;5057800;28;20214;-64
2023/07/29 07:20:20;;;;;;;6.07;4.47;;;;;;;;;;5057737;28;20277;-65
2023/07/29 07:22:48;;;;;;;4.30;3.90;;;;;;;;;;5057402;28;20207;-64
2023/07/29 07:25:15;;;;;;;4.50;3.80;;;;;;;;;;5057497;28;20217;-64
2023/07/29 07:27:45;;;;;;;4.73;3.87;;;;;;;;;;5057677;28;20298;-64
2023/07/29 07:30:12;;;;;;;4.63;3.97;;;;;;;;;;5057557;28;20226;-64
2023/07/29 07:32:40;;;;;;;4.40;4.00;;;;;;;;;;5054288;28;20230;-64
2023/07/29 07:35:09;;;;;;;4.33;3.87;;;;;;;;;;5057401;28;20206;-65
2023/07/29 07:37:36;;;;;;;4.60;4.17;;;;;;;;;;5057448;28;20214;-64
2023/07/29 07:40:05;;;;;;;4.83;4.37;;;;;;;;;;5057295;28;20252;-64
2023/07/29 07:42:32;;;;;;;7.10;4.30;;;;;;;;;;5057206;28;20638;-65
2023/07/29 07:45:01;;;;;;;7.03;4.03;;;;;;;;;;5057617;28;20214;-64
2023/07/29 07:47:29;;;;;;;4.67;4.20;;;;;;;;;;5057358;28;20216;-65
2023/07/29 07:49:57;;;;;;;5.07;4.23;;;;;;;;;;5057543;28;20279;-65
2023/07/29 07:52:25;;;;;;;4.53;3.57;;;;;;;;;;5057221;28;20222;-65
2023/07/29 07:54:53;;;;;;;5.07;3.87;;;;;;;;;;5056661;28;20261;-64
2023/07/29 07:57:21;;;;;;;4.33;3.70;;;;;;;;;;5057192;28;20642;-65
2023/07/29 07:59:49;;;;;;;5.67;4.13;;;;;;;;;;5057186;28;20249;-65
2023/07/29 08:02:18;;;;;;;4.23;3.67;;;;;;;;;;5057378;28;20212;-64
2023/07/29 08:04:45;;;;;;;4.63;3.80;;;;;;;;;;5057024;28;20303;-65
2023/07/29 08:07:14;;;;;;;6.00;3.67;;;;;;;;;;5059980;28;20290;-65
2023/07/29 08:09:41;;;;;;;5.97;4.33;;;;;;;;;;5060606;28;20233;-64
2023/07/29 08:12:09;;;;;;;5.00;4.20;;;;;;;;;;5061106;28;20230;-65
2023/07/29 08:14:37;;;;;;;5.30;4.03;;;;;;;;;;5060786;28;20693;-65
2023/07/29 08:17:05;;;;;;;6.83;3.87;;;;;;;;;;5061118;28;20654;-64
2023/07/29 08:19:35;;;;;;;4.07;3.67;;;;;;;;;;5060905;28;20210;-64
2023/07/29 08:22:03;;;;;;;5.23;3.53;;;;;;;;;;5061005;28;20207;-65
2023/07/29 08:24:31;;;;;;;4.90;4.03;;;;;;;;;;5060653;28;20206;-65
2023/07/29 08:26:59;;;;;;;5.40;3.67;;;;;;;;;;5060730;28;20215;-63
2023/07/29 08:29:26;;;;;;;4.67;3.50;;;;;;;;;;5060527;28;20638;-64
2023/07/29 08:31:55;;;;;;;5.43;4.10;;;;;;;;;;5060354;28;20586;-64
2023/07/29 08:34:23;;;;;;;7.10;3.63;;;;;;;;;;5060461;28;20242;-65
2023/07/29 08:36:52;;;;;;;4.23;3.70;;;;;;;;;;5060316;28;20289;-64
2023/07/29 08:39:19;;;;;;;3.63;3.33;;;;;;;;;;5060392;28;20673;-63
2023/07/29 08:41:50;;;;;;;7.33;3.70;;;;;;;;;;5060271;28;20219;-64
2023/07/29 08:44:19;;;;;;;5.70;3.93;;;;;;;;;;5060492;28;20203;-64
2023/07/29 08:46:47;;;;;;;4.60;3.20;;;;;;;;;;5060544;28;20234;-65
2023/07/29 08:49:18;;;;;;;4.43;3.40;;;;;;;;;;5060567;28;20215;-64
2023/07/29 08:51:47;;;;;;;6.90;3.27;;;;;;;;;;5060142;28;20303;-66
2023/07/29 08:54:16;;;;;;;5.20;3.17;;;;;;;;;;5060034;28;20244;-64
2023/07/29 08:56:44;;;;;;;3.63;3.10;;;;;;;;;;5060302;28;20291;-64
2023/07/29 08:59:13;;;;;;;3.40;3.03;;;;;;;;;;5060266;28;20221;-63
2023/07/29 09:01:41;;;;;;;4.00;3.50;;;;;;;;;;5059890;28;20224;-63
2023/07/29 09:04:08;;;;;;;3.47;3.17;;;;;;;;;;5059950;28;20214;-64
2023/07/29 09:06:38;;;;;;;5.60;3.70;;;;;;;;;;5060008;28;20331;-63
2023/07/29 09:09:08;;;;;;;4.43;3.50;;;;;;;;;;5059657;28;20587;-63
2023/07/29 09:11:37;;;;;;;3.53;3.07;;;;;;;;;;5059857;28;20295;-63
2023/07/29 09:14:05;;;;;;;4.43;3.60;;;;;;;;;;5060056;28;20214;-64
2023/07/29 09:16:33;;;;;;;5.13;3.60;;;;;;;;;;5059672;28;20229;-64
2023/07/29 09:19:02;;;;;;;5.17;3.77;;;;;;;;;;5059205;28;20219;-63
2023/07/29 09:21:30;;;;;;;4.17;3.30;;;;;;;;;;5059419;28;20229;-65
2023/07/29 09:23:58;;;;;;;5.27;3.53;;;;;;;;;;5059578;28;20212;-64
2023/07/29 09:26:26;;;;;;;6.97;4.10;;;;;;;;;;5059650;28;20212;-64
2023/07/29 09:28:56;;;;;;;6.53;3.63;;;;;;;;;;5059858;28;20209;-63
2023/07/29 09:31:24;;;;;;;6.60;3.87;;;;;;;;;;5059535;28;20296;-65
2023/07/29 09:33:56;;;;;;;6.70;3.93;;;;;;;;;;5059534;28;20232;-65
2023/07/29 09:36:24;;;;;;;7.80;3.97;;;;;;;;;;5059535;28;20292;-63
2023/07/29 09:38:55;;;;;;;5.20;3.53;;;;;;;;;;5058911;28;20219;-63
2023/07/29 09:41:24;;;;;;;6.13;3.70;;;;;;;;;;5059395;28;20260;-63
2023/07/29 09:43:58;;;;;;;4.67;4.27;;;;;;;;;;5059404;28;20206;-63
2023/07/29 09:46:26;;;;;;;4.67;4.17;;;;;;;;;;5059446;28;20300;-64
2023/07/29 09:48:55;;;;;;;4.93;4.43;;;;;;;;;;5059391;28;20207;-65
2023/07/29 09:51:23;;;;;;;7.73;4.30;;;;;;;;;;5059176;28;20229;-63
2023/07/29 09:53:52;;;;;;;6.43;4.43;;;;;;;;;;5058539;28;20243;-64
2023/07/29 09:56:24;;;;;;;6.40;4.63;;;;;;;;;;5059190;28;20273;-64
2023/07/29 09:58:52;;;;;;;6.10;4.47;;;;;;;;;;5058821;28;20552;-64
2023/07/29 10:01:21;;;;;;;4.47;3.97;;;;;;;;;;5058801;28;20227;-64
2023/07/29 10:03:49;;;;;;;5.47;4.13;;;;;;;;;;5058932;28;20201;-64
2023/07/29 10:06:18;;;;;;;7.07;5.00;;;;;;;;;;5058623;28;20681;-65
2023/07/29 10:08:46;;;;;;;9.20;6.30;;;;;;;;;;5058709;28;20210;-64
2023/07/29 10:11:14;;;;;;;5.80;4.20;;;;;;;;;;5058856;28;20234;-64
2023/07/29 10:13:42;;;;;;;5.33;4.10;;;;;;;;;;5058594;28;20634;-65
2023/07/29 10:16:22;;;;;;;4.07;3.67;;;;;;;;;;5058843;28;20218;-65
2023/07/29 10:18:51;;;;;;;5.03;4.37;;;;;;;;;;5058571;28;20212;-65
2023/07/29 10:21:19;;;;;;;6.70;4.73;;;;;;;;;;5058290;28;20232;-64
2023/07/29 10:23:49;;;;;;;5.07;3.67;;;;;;;;;;5058181;28;20208;-64
2023/07/29 10:26:17;;;;;;;8.07;4.13;;;;;;;;;;5058194;28;20240;-65
2023/07/29 10:28:47;;;;;;;6.43;4.10;;;;;;;;;;5058530;28;20268;-65
2023/07/29 10:31:16;;;;;;;4.20;3.80;;;;;;;;;;5058219;28;20301;-65
2023/07/29 10:33:46;;;;;;;5.80;4.27;;;;;;;;;;5058188;28;20422;-65
2023/07/29 10:36:14;;;;;;;5.13;4.10;;;;;;;;;;5058389;28;20210;-64
2023/07/29 10:38:42;;;;;;;7.67;4.20;;;;;;;;;;5058223;28;20656;-63
2023/07/29 10:41:10;;;;;;;5.37;4.53;;;;;;;;;;5057983;28;20330;-64
2023/07/29 10:43:38;;;;;;;6.97;4.70;;;;;;;;;;5058392;28;20205;-64
2023/07/29 10:46:17;;;;;;;5.53;4.10;;;;;;;;;;5058373;28;20208;-64
2023/07/29 10:48:53;;;;;;;6.60;4.50;;;;;;;;;;5058023;28;20219;-64
2023/07/29 10:51:29;;;;;;;4.77;4.07;;;;;;;;;;5058088;28;20257;-65
2023/07/29 10:53:58;;;;;;;4.27;3.53;;;;;;;;;;5057527;28;20233;-65
2023/07/29 10:56:27;;;;;;;3.97;3.17;;;;;;;;;;5057940;28;20216;-65
2023/07/29 10:58:56;;;;;;;5.57;3.77;;;;;;;;;;5057685;28;20202;-65
2023/07/29 11:01:32;;;;;;;4.10;3.40;;;;;;;;;;5057630;28;20233;-64
2023/07/29 11:04:18;;;;;;;4.23;3.13;;;;;;;;;;5058115;28;20220;-63
2023/07/29 11:07:05;;;;;;;4.37;3.30;;;;;;;;;;5057575;28;20205;-65
2023/07/29 11:09:41;;;;;;;3.30;3.00;;;;;;;;;;5057367;28;20569;-65
2023/07/29 11:12:24;;;;;;;3.57;2.63;;;;;;;;;;5057961;28;20291;-65
2023/07/29 11:14:52;;;;;;;2.67;2.47;;;;;;;;;;5057317;28;20231;-64
2023/07/29 11:17:20;;;;;;;3.97;2.90;;;;;;;;;;5057820;28;20204;-63
2023/07/29 11:19:50;;;;;;;4.47;2.77;;;;;;;;;;5057783;28;20686;-64
2023/07/29 11:22:19;;;;;;;3.47;2.57;;;;;;;;;;5057355;28;20218;-63
2023/07/29 11:24:48;;;;;;;2.70;2.50;;;;;;;;;;5057485;28;20208;-63
2023/07/29 11:27:16;;;;;;;3.63;2.50;;;;;;;;;;5057717;28;20666;-63
2023/07/29 11:29:43;;;;;;;2.43;2.20;;;;;;;;;;5057317;28;20570;-64
2023/07/29 11:32:11;;;;;;;3.53;2.43;;;;;;;;;;5057721;28;20218;-64
2023/07/29 11:34:39;;;;;;;3.53;2.60;;;;;;;;;;5057476;28;20229;-64
2023/07/29 11:37:07;;;;;;;3.13;2.53;;;;;;;;;;5057296;28;20220;-63
2023/07/29 11:39:40;;;;;;;2.53;2.17;;;;;;;;;;5057318;28;20214;-63
2023/07/29 11:42:11;;;;;;;4.90;2.70;;;;;;;;;;5060300;28;20618;-64
2023/07/29 11:44:39;;;;;;;4.77;2.70;;;;;;;;;;5061683;28;20199;-64
2023/07/29 11:47:07;;;;;;;3.73;2.90;;;;;;;;;;5061602;28;20204;-65
2023/07/29 11:49:35;;;;;;;5.63;3.10;;;;;;;;;;5061279;28;20257;-64
2023/07/29 11:52:03;;;;;;;3.10;2.77;;;;;;;;;;5061385;28;20275;-64
2023/07/29 11:54:31;;;;;;;2.40;2.03;;;;;;;;;;5060806;28;20232;-64
2023/07/29 11:56:59;;;;;;;10.70;6.57;;;;;;;;;;5061384;28;20203;-64
2023/07/29 11:59:28;;;;;;;2.93;2.20;;;;;;;;;;5060968;28;20297;-69
2023/07/29 12:01:56;;;;;;;2.73;2.50;;;;;;;;;;5061046;28;20565;-63
2023/07/29 12:04:24;;;;;;;4.60;2.50;;;;;;;;;;5061411;28;20605;-63
2023/07/29 12:06:52;;;;;;;3.73;2.63;;;;;;;;;;5060998;28;20229;-64
2023/07/29 12:09:20;;;;;;;2.60;2.40;;;;;;;;;;5061045;28;20645;-64
2023/07/29 12:11:47;;;;;;;2.37;2.20;;;;;;;;;;5061078;28;20233;-63
2023/07/29 12:14:17;;;;;;;2.90;2.23;;;;;;;;;;5060841;28;20722;-64
2023/07/29 12:16:48;;;;;;;2.10;1.90;;;;;;;;;;5060989;28;20232;-64
2023/07/29 12:19:17;;;;;;;2.53;2.13;;;;;;;;;;5061101;28;20204;-64
2023/07/29 12:21:45;;;;;;;2.53;2.30;;;;;;;;;;5060838;28;20261;-64
2023/07/29 12:24:13;;;;;;;2.10;1.90;;;;;;;;;;5060697;28;20208;-65
2023/07/29 12:26:41;;;;;;;2.67;2.47;;;;;;;;;;5060966;28;20212;-64
2023/07/29 12:29:12;;;;;;;4.53;2.37;;;;;;;;;;5060756;28;20301;-64
2023/07/29 12:31:40;;;;;;;2.03;1.93;;;;;;;;;;5060426;28;20704;-64
2023/07/29 12:34:09;;;;;;;2.43;1.70;;;;;;;;;;5060420;28;20311;-63
2023/07/29 12:36:44;;;;;;;2.23;2.03;;;;;;;;;;5060304;28;20219;-63
2023/07/29 12:39:18;;;;;;;2.13;1.93;;;;;;;;;;5060460;28;20208;-64
2023/07/29 12:41:46;;;;;;;2.40;2.13;;;;;;;;;;5060607;28;20220;-64
2023/07/29 12:44:13;;;;;;;2.57;2.03;;;;;;;;;;5060747;28;20205;-64
2023/07/29 12:46:43;;;;;;;4.50;2.37;;;;;;;;;;5060511;28;20653;-65
2023/07/29 12:49:12;;;;;;;3.07;2.30;;;;;;;;;;5060338;28;20214;-63
2023/07/29 12:51:40;;;;;;;2.57;2.37;;;;;;;;;;5060084;28;20609;-63
2023/07/29 12:54:08;;;;;;;2.83;2.10;;;;;;;;;;5058495;28;20259;-64
2023/07/29 12:56:36;;;;;;;3.00;2.23;;;;;;;;;;5060388;28;20228;-65
2023/07/29 12:59:06;;;;;;;2.50;2.20;;;;;;;;;;5060292;28;20647;-63
2023/07/29 13:01:34;;;;;;;2.63;2.07;;;;;;;;;;5060306;28;20238;-62
2023/07/29 13:04:01;;;;;;;3.17;2.47;;;;;;;;;;5060186;28;20692;-63
2023/07/29 13:06:31;;;;;;;2.70;2.50;;;;;;;;;;5059957;28;20216;-65
2023/07/29 13:08:59;;;;;;;3.93;2.40;;;;;;;;;;5059694;28;20210;-64
2023/07/29 13:11:27;;;;;;;2.83;2.57;;;;;;;;;;5059978;28;20760;-64
2023/07/29 13:13:55;;;;;;;4.00;2.67;;;;;;;;;;5060030;28;22183;-63
2023/07/29 13:16:23;;;;;;;2.70;2.50;;;;;;;;;;5059927;28;20288;-63
2023/07/29 13:18:50;;;;;;;2.90;2.60;;;;;;;;;;5059972;28;20216;-63
2023/07/29 13:21:18;;;;;;;2.73;2.40;;;;;;;;;;5059689;28;20271;-64
2023/07/29 13:23:47;;;;;;;2.63;2.40;;;;;;;;;;5059650;28;20296;-62
2023/07/29 13:26:15;;;;;;;2.67;2.47;;;;;;;;;;5059819;28;20220;-63
2023/07/29 13:28:43;;;;;;;3.00;2.53;;;;;;;;;;5059756;28;20207;-64
2023/07/29 13:31:11;;;;;;;3.27;2.30;;;;;;;;;;5059546;28;20232;-63
2023/07/29 13:33:39;;;;;;;2.00;1.90;;;;;;;;;;5059674;28;20203;-64
2023/07/29 13:36:08;;;;;;;2.00;1.90;;;;;;;;;;5059409;28;20229;-64
2023/07/29 13:38:36;;;;;;;2.87;2.57;;;;;;;;;;5059408;28;20205;-64
2023/07/29 13:41:05;;;;;;;3.67;2.40;;;;;;;;;;5059434;28;20232;-65
2023/07/29 13:43:33;;;;;;;2.80;2.57;;;;;;;;;;5059396;28;20217;-64
2023/07/29 13:46:01;;;;;;;2.67;2.37;;;;;;;;;;5059368;28;20210;-63
2023/07/29 13:48:29;;;;;;;2.47;2.27;;;;;;;;;;5058983;28;20643;-63
2023/07/29 13:50:57;;;;;;;2.60;2.10;;;;;;;;;;5058883;28;20668;-63
2023/07/29 13:53:25;;;;;;;3.00;2.10;;;;;;;;;;5058672;28;20297;-64
2023/07/29 13:55:53;;;;;;;2.37;2.17;;;;;;;;;;5058698;28;20282;-64
2023/07/29 13:58:22;;;;;;;2.73;2.27;;;;;;;;;;5059157;28;20302;-64
2023/07/29 14:00:50;;;;;;;2.40;2.20;;;;;;;;;;5059021;28;20234;-64
2023/07/29 14:03:18;;;;;;;3.67;2.60;;;;;;;;;;5059508;28;20208;-65
2023/07/29 14:05:45;;;;;;;4.57;1.90;;;;;;;;;;5059693;28;20233;-65
2023/07/29 14:08:13;;;;;;;2.43;2.20;;;;;;;;;;5058903;28;20214;-66
2023/07/29 14:10:41;;;;;;;2.27;2.03;;;;;;;;;;5059060;28;20233;-64
2023/07/29 14:13:09;;;;;;;2.77;2.10;;;;;;;;;;5058736;28;20667;-64
2023/07/29 14:15:38;;;;;;;2.50;2.30;;;;;;;;;;5058770;28;20685;-64
2023/07/29 14:18:06;;;;;;;3.93;2.00;;;;;;;;;;5058824;28;20217;-64
2023/07/29 14:20:34;;;;;;;2.10;2.00;;;;;;;;;;5058554;28;20230;-64
2023/07/29 14:23:02;;;;;;;2.27;2.00;;;;;;;;;;5058315;28;20219;-64
2023/07/29 14:25:30;;;;;;;2.83;2.17;;;;;;;;;;5058382;28;20239;-64
2023/07/29 14:27:58;;;;;;;2.37;2.03;;;;;;;;;;5058643;28;20216;-64
2023/07/29 14:30:26;;;;;;;2.50;2.30;;;;;;;;;;5058294;28;20239;-64
2023/07/29 14:32:55;;;;;;;2.47;2.27;;;;;;;;;;5058377;28;20295;-65
2023/07/29 14:35:22;;;;;;;6.10;5.07;;;;;;;;;;5058259;28;20237;-64
2023/07/29 14:37:50;;;;;;;2.97;2.20;;;;;;;;;;5057807;28;20206;-65
2023/07/29 14:40:18;;;;;;;2.60;2.10;;;;;;;;;;5058200;28;20254;-64
2023/07/29 14:42:46;;;;;;;1.80;1.70;;;;;;;;;;5058360;28;20212;-65
2023/07/29 14:45:13;;;;;;;1.87;1.77;;;;;;;;;;5058410;28;20208;-65
2023/07/29 14:47:41;;;;;;;4.13;2.20;;;;;;;;;;5058261;28;20221;-63
2023/07/29 14:50:10;;;;;;;2.10;1.90;;;;;;;;;;5058152;28;20277;-63
2023/07/29 14:52:38;;;;;;;2.13;1.80;;;;;;;;;;5058097;28;20237;-64